createdAt,value
2022-11-16T00:02:37.369Z,6.41
2022-11-16T00:07:39.098Z,6.52
2022-11-16T00:12:41.032Z,6.54
2022-11-16T00:17:42.732Z,6.56
2022-11-16T00:22:44.411Z,6.60
2022-11-16T00:27:46.050Z,6.66
2022-11-16T00:32:47.906Z,6.73
2022-11-16T00:37:51.795Z,6.81
2022-11-16T00:42:53.409Z,6.89
2022-11-16T00:48:00.172Z,6.89
2022-11-16T00:53:04.479Z,6.88
2022-11-16T00:58:06.346Z,6.89
2022-11-16T01:03:08.170Z,6.92
2022-11-16T01:08:10.448Z,6.89
2022-11-16T01:13:12.416Z,6.86
2022-11-16T01:18:14.292Z,6.91
2022-11-16T01:23:16.127Z,6.91
2022-11-16T01:28:17.840Z,6.99
2022-11-16T01:33:24.812Z,7.00
2022-11-16T01:38:29.738Z,6.99
2022-11-16T01:43:52.900Z,7.00
2022-11-16T01:49:10.549Z,6.99
2022-11-16T01:54:13.649Z,6.97
2022-11-16T01:59:26.605Z,7.08
2022-11-16T02:04:28.836Z,7.10
2022-11-16T02:09:57.160Z,7.13
2022-11-16T02:15:35.889Z,7.15
2022-11-16T02:20:59.442Z,7.18
2022-11-16T02:26:04.739Z,7.23
2022-11-16T02:31:11.156Z,7.16
2022-11-16T02:36:20.433Z,7.19
2022-11-16T02:41:26.394Z,7.22
2022-11-16T02:46:37.780Z,7.14
2022-11-16T02:51:42.316Z,7.20
2022-11-16T02:56:57.762Z,7.13
2022-11-16T03:02:22.774Z,7.07
2022-11-16T03:07:31.484Z,6.98
2022-11-16T03:12:35.843Z,6.89
2022-11-16T03:17:41.873Z,6.83
2022-11-16T03:22:50.848Z,6.74
2022-11-16T03:28:02.437Z,6.69
2022-11-16T03:33:20.586Z,6.68
2022-11-16T03:38:27.347Z,6.74
2022-11-16T03:43:30.897Z,6.87
2022-11-16T03:48:38.585Z,7.05
2022-11-16T03:53:46.606Z,7.09
2022-11-16T03:58:49.185Z,7.10
2022-11-16T04:03:52.561Z,7.10
2022-11-16T04:09:13.752Z,7.12
2022-11-16T04:14:39.766Z,7.17
2022-11-16T04:20:03.223Z,7.12
2022-11-16T04:25:12.060Z,7.01
2022-11-16T04:30:14.301Z,6.94
2022-11-16T04:35:35.927Z,6.89
2022-11-16T04:40:38.406Z,6.92
2022-11-16T04:45:59.141Z,6.87
2022-11-16T04:51:08.358Z,6.95
2022-11-16T04:56:12.419Z,6.95
2022-11-16T05:01:14.758Z,6.97
2022-11-16T05:06:17.595Z,6.99
2022-11-16T05:11:19.979Z,7.11
2022-11-16T05:16:22.839Z,7.10
2022-11-16T05:21:24.975Z,7.14
2022-11-16T05:26:26.746Z,7.12
2022-11-16T05:31:29.765Z,7.13
2022-11-16T05:36:31.669Z,7.09
2022-11-16T05:41:33.676Z,7.05
2022-11-16T05:46:35.605Z,7.00
2022-11-16T05:51:38.979Z,7.02
2022-11-16T05:56:41.817Z,7.11
2022-11-16T06:01:43.905Z,7.10
2022-11-16T06:06:45.909Z,7.06
2022-11-16T06:11:48.010Z,7.04
2022-11-16T06:16:50.493Z,7.02
2022-11-16T06:21:52.242Z,7.07
2022-11-16T06:26:56.476Z,7.16
2022-11-16T06:31:58.227Z,7.24
2022-11-16T06:37:00.102Z,7.16
2022-11-16T06:42:02.096Z,7.07
2022-11-16T06:47:04.023Z,7.11
2022-11-16T06:52:06.634Z,7.13
2022-11-16T06:57:08.454Z,7.13
2022-11-16T07:02:11.221Z,7.18
2022-11-16T07:07:16.257Z,7.43
2022-11-16T07:12:18.082Z,7.44
2022-11-16T07:17:20.140Z,7.43
2022-11-16T07:22:21.921Z,7.46
2022-11-16T07:27:26.553Z,7.52
2022-11-16T07:32:30.174Z,7.48
2022-11-16T07:37:44.072Z,7.64
2022-11-16T07:42:48.451Z,7.62
2022-11-16T07:48:02.647Z,7.60
2022-11-16T07:53:30.816Z,7.59
2022-11-16T07:58:35.057Z,7.61
2022-11-16T08:03:39.722Z,7.62
2022-11-16T08:08:43.110Z,7.65
2022-11-16T08:13:45.964Z,7.69
2022-11-16T08:18:48.572Z,7.72
2022-11-16T08:23:55.339Z,7.70
2022-11-16T08:29:00.925Z,7.71
2022-11-16T08:34:07.904Z,7.70
2022-11-16T08:39:12.456Z,7.74
2022-11-16T08:44:15.649Z,7.68
2022-11-16T08:49:21.043Z,7.74
2022-11-16T08:54:23.106Z,7.76
2022-11-16T08:59:24.955Z,7.88
2022-11-16T09:04:36.701Z,7.93
2022-11-16T09:09:38.803Z,7.97
2022-11-16T09:14:40.463Z,8.02
2022-11-16T09:19:42.125Z,8.11
2022-11-16T09:24:43.812Z,8.17
2022-11-16T09:29:45.693Z,8.26
2022-11-16T09:34:47.448Z,8.21
2022-11-16T09:39:49.194Z,8.31
2022-11-16T09:45:04.419Z,8.35
2022-11-16T09:50:10.882Z,8.37
2022-11-16T09:55:32.086Z,8.47
2022-11-16T10:00:35.636Z,8.58
2022-11-16T10:05:59.377Z,8.62
2022-11-16T10:11:27.764Z,8.61
2022-11-16T10:17:06.523Z,8.64
2022-11-16T10:22:39.097Z,8.70
2022-11-16T10:28:13.242Z,8.72
2022-11-16T10:33:20.607Z,8.72
2022-11-16T10:38:28.817Z,8.74
2022-11-16T10:43:33.014Z,8.75
2022-11-16T10:48:47.227Z,8.75
2022-11-16T10:53:49.503Z,8.65
2022-11-16T10:59:00.441Z,8.57
2022-11-16T11:04:14.057Z,8.49
2022-11-16T11:09:23.010Z,8.51
2022-11-16T11:14:24.731Z,8.62
2022-11-16T11:19:28.404Z,8.76
2022-11-16T11:24:43.898Z,8.89
2022-11-16T11:29:52.944Z,9.12
2022-11-16T11:34:56.099Z,9.23
2022-11-16T11:40:09.880Z,9.37
2022-11-16T11:45:15.244Z,9.50
2022-11-16T11:51:22.010Z,9.62
2022-11-16T11:56:26.056Z,9.70
2022-11-16T12:01:53.581Z,9.72
2022-11-16T12:07:12.230Z,9.82
2022-11-16T12:12:29.214Z,9.86
2022-11-16T12:17:43.074Z,9.91
2022-11-16T12:23:24.995Z,9.90
2022-11-16T12:28:51.206Z,9.92
2022-11-16T12:34:09.893Z,9.92
2022-11-16T12:39:33.260Z,9.96
2022-11-16T12:44:50.192Z,9.99
2022-11-16T12:49:54.712Z,10.04
2022-11-16T12:55:29.199Z,10.07
2022-11-16T13:00:59.545Z,10.14
2022-11-16T13:06:13.405Z,10.16
2022-11-16T13:11:27.330Z,10.28
2022-11-16T13:16:29.564Z,10.39
2022-11-16T13:21:47.498Z,10.40
2022-11-16T13:27:19.536Z,10.46
2022-11-16T13:32:30.417Z,10.55
2022-11-16T13:37:37.982Z,10.64
2022-11-16T13:42:57.283Z,10.65
2022-11-16T13:48:01.553Z,10.79
2022-11-16T13:58:43.418Z,11.07
2022-11-16T14:04:08.726Z,11.23
2022-11-16T14:09:43.691Z,11.32
2022-11-16T14:15:15.463Z,11.34
2022-11-16T14:20:27.485Z,11.32
2022-11-16T14:25:37.284Z,11.36
2022-11-16T14:31:04.878Z,11.42
2022-11-16T14:36:09.832Z,11.39
2022-11-16T14:41:24.593Z,11.29
2022-11-16T14:46:29.696Z,11.20
2022-11-16T14:51:37.185Z,11.16
2022-11-16T14:56:55.768Z,11.14
2022-11-16T15:02:01.133Z,11.04
2022-11-16T15:07:05.271Z,10.89
2022-11-16T15:12:34.407Z,10.54
2022-11-16T15:17:38.606Z,10.40
2022-11-16T15:22:43.887Z,10.17
2022-11-16T15:27:45.587Z,9.97
2022-11-16T15:32:50.086Z,9.70
2022-11-16T15:38:06.006Z,9.61
2022-11-16T15:43:10.210Z,9.50
2022-11-16T15:48:21.386Z,9.38
2022-11-16T15:53:43.008Z,9.15
2022-11-16T15:58:45.002Z,9.06
2022-11-16T16:04:02.841Z,9.00
2022-11-16T16:09:05.902Z,8.86
2022-11-16T16:14:10.696Z,8.65
2022-11-16T16:19:30.369Z,8.62
2022-11-16T16:24:46.282Z,8.52
2022-11-16T16:29:50.624Z,8.54
2022-11-16T16:34:53.751Z,8.58
2022-11-16T16:39:56.358Z,8.56
2022-11-16T16:44:59.963Z,8.63
2022-11-16T16:50:01.816Z,8.58
2022-11-16T16:55:03.979Z,8.64
2022-11-16T17:00:06.299Z,8.76
2022-11-16T17:05:08.312Z,8.68
2022-11-16T17:10:10.572Z,8.59
2022-11-16T17:15:17.985Z,8.53
2022-11-16T17:20:21.293Z,8.49
2022-11-16T17:25:23.042Z,8.40
2022-11-16T17:30:25.073Z,8.36
2022-11-16T17:35:26.722Z,8.33
2022-11-16T17:40:28.488Z,8.46
2022-11-16T17:45:30.111Z,8.43
2022-11-16T17:50:31.880Z,8.29
2022-11-16T17:55:33.637Z,8.34
2022-11-16T18:00:35.286Z,8.35
2022-11-16T18:05:36.948Z,8.45
2022-11-16T18:10:38.712Z,8.52
2022-11-16T18:15:42.489Z,8.55
2022-11-16T18:20:46.078Z,8.54
2022-11-16T18:25:47.779Z,8.54
2022-11-16T18:30:49.606Z,8.57
2022-11-16T18:35:52.050Z,8.54
2022-11-16T18:41:12.178Z,8.50
2022-11-16T18:46:13.897Z,8.28
2022-11-16T18:51:16.801Z,8.23
2022-11-16T18:56:18.891Z,8.27
2022-11-16T19:01:23.768Z,8.27
2022-11-16T19:06:25.716Z,8.11
2022-11-16T19:11:28.475Z,8.14
2022-11-16T19:16:30.924Z,8.04
2022-11-16T19:21:32.589Z,8.04
2022-11-16T19:26:34.371Z,7.97
2022-11-16T19:31:36.196Z,7.89
2022-11-16T19:36:37.930Z,7.84
2022-11-16T19:41:39.617Z,7.73
2022-11-16T19:46:41.849Z,7.62
2022-11-16T19:51:43.621Z,7.53
2022-11-16T19:56:49.296Z,7.47
2022-11-16T20:01:53.753Z,7.49
2022-11-16T20:06:55.524Z,7.37
2022-11-16T20:11:57.664Z,7.34
2022-11-16T20:16:59.613Z,7.31
2022-11-16T20:22:01.406Z,7.11
2022-11-16T20:27:03.048Z,7.10
2022-11-16T20:32:04.850Z,7.24
2022-11-16T20:37:07.418Z,7.31
2022-11-16T20:42:09.250Z,7.25
2022-11-16T20:47:11.026Z,7.26
2022-11-16T20:52:12.684Z,7.26
2022-11-16T20:57:14.324Z,7.06
2022-11-16T21:02:16.105Z,6.79
2022-11-16T21:07:19.539Z,6.79
2022-11-16T21:12:42.908Z,6.76
2022-11-16T21:17:44.842Z,6.83
2022-11-16T21:22:46.604Z,6.80
2022-11-16T21:27:48.382Z,6.89
2022-11-16T21:32:50.125Z,6.86
2022-11-16T21:37:51.731Z,6.71
2022-11-16T21:42:53.421Z,6.68
2022-11-16T21:47:55.098Z,6.67
2022-11-16T21:52:59.475Z,6.65
2022-11-16T21:58:03.477Z,6.56
2022-11-16T22:03:05.411Z,6.47
2022-11-16T22:08:09.441Z,6.49
2022-11-16T22:13:11.184Z,6.53
2022-11-16T22:18:13.483Z,6.54
2022-11-16T22:23:18.668Z,6.56
2022-11-16T22:28:24.246Z,6.62
2022-11-16T22:33:25.883Z,6.65
2022-11-16T22:38:27.858Z,6.67
2022-11-16T22:43:30.805Z,6.66
2022-11-16T22:48:36.662Z,6.55
2022-11-16T22:53:38.655Z,6.51
2022-11-16T22:58:40.826Z,6.58
2022-11-16T23:03:42.708Z,6.51
2022-11-16T23:08:44.825Z,6.58
2022-11-16T23:14:05.945Z,6.60
2022-11-16T23:19:31.347Z,6.50
2022-11-16T23:24:51.529Z,6.49
2022-11-16T23:29:53.484Z,6.43
2022-11-16T23:34:56.072Z,6.53
2022-11-16T23:39:57.775Z,6.66
2022-11-16T23:44:59.433Z,6.66
2022-11-16T23:50:01.676Z,6.70
2022-11-16T23:55:03.796Z,6.79
